sensor_id;sensor_type;location;lat;lon;timestamp;pressure;altitude;pressure_sealevel;temperature;humidity
69796;BME280;57073;45.650;9.612;2023-04-26T00:00:43;98812.66;;;10.09;57.67
69796;BME280;57073;45.650;9.612;2023-04-26T00:05:44;98813.63;;;10.03;56.53
69796;BME280;57073;45.650;9.612;2023-04-26T00:10:45;98831.59;;;9.97;55.78
69796;BME280;57073;45.650;9.612;2023-04-26T00:15:45;98836.03;;;10.03;54.25
69796;BME280;57073;45.650;9.612;2023-04-26T00:20:45;98825.16;;;9.98;54.72
69796;BME280;57073;45.650;9.612;2023-04-26T00:25:46;98831.44;;;10.04;55.61
69796;BME280;57073;45.650;9.612;2023-04-26T00:30:46;98837.31;;;10.01;55.84
69796;BME280;57073;45.650;9.612;2023-04-26T00:35:48;98844.25;;;9.97;54.20
69796;BME280;57073;45.650;9.612;2023-04-26T00:40:48;98834.38;;;9.85;53.76
69796;BME280;57073;45.650;9.612;2023-04-26T00:45:48;98839.81;;;9.91;51.14
69796;BME280;57073;45.650;9.612;2023-04-26T00:50:50;98838.78;;;9.92;47.75
69796;BME280;57073;45.650;9.612;2023-04-26T00:55:51;98867.25;;;9.88;50.74
69796;BME280;57073;45.650;9.612;2023-04-26T01:00:52;98875.63;;;9.74;53.47
69796;BME280;57073;45.650;9.612;2023-04-26T01:05:53;98871.22;;;9.68;53.25
69796;BME280;57073;45.650;9.612;2023-04-26T01:10:53;98876.94;;;9.72;53.32
69796;BME280;57073;45.650;9.612;2023-04-26T01:15:55;98873.13;;;9.56;53.60
69796;BME280;57073;45.650;9.612;2023-04-26T01:20:56;98888.47;;;9.55;54.60
69796;BME280;57073;45.650;9.612;2023-04-26T01:25:56;98902.06;;;9.49;54.46
69796;BME280;57073;45.650;9.612;2023-04-26T01:30:56;98907.69;;;9.47;54.39
69796;BME280;57073;45.650;9.612;2023-04-26T01:35:57;98907.63;;;9.30;53.94
69796;BME280;57073;45.650;9.612;2023-04-26T01:40:57;98908.94;;;9.27;54.27
69796;BME280;57073;45.650;9.612;2023-04-26T01:45:57;98913.13;;;9.23;54.26
69796;BME280;57073;45.650;9.612;2023-04-26T01:50:58;98912.38;;;9.40;54.42
69796;BME280;57073;45.650;9.612;2023-04-26T01:56:03;98920.84;;;9.32;53.19
69796;BME280;57073;45.650;9.612;2023-04-26T02:01:08;98910.34;;;9.18;52.31
69796;BME280;57073;45.650;9.612;2023-04-26T02:06:08;98918.88;;;9.03;50.40
69796;BME280;57073;45.650;9.612;2023-04-26T02:11:08;98901.13;;;8.79;50.66
69796;BME280;57073;45.650;9.612;2023-04-26T02:16:09;98922.03;;;8.88;50.76
69796;BME280;57073;45.650;9.612;2023-04-26T02:21:10;98918.09;;;8.91;50.08
69796;BME280;57073;45.650;9.612;2023-04-26T02:26:11;98911.06;;;8.90;48.00
69796;BME280;57073;45.650;9.612;2023-04-26T02:31:12;98920.88;;;8.96;46.88
69796;BME280;57073;45.650;9.612;2023-04-26T02:36:12;98920.78;;;8.91;46.42
69796;BME280;57073;45.650;9.612;2023-04-26T02:41:12;98925.69;;;8.94;46.09
69796;BME280;57073;45.650;9.612;2023-04-26T02:46:13;98917.94;;;8.86;45.39
69796;BME280;57073;45.650;9.612;2023-04-26T02:51:13;98926.03;;;8.86;45.46
69796;BME280;57073;45.650;9.612;2023-04-26T02:56:15;98926.03;;;8.86;46.06
69796;BME280;57073;45.650;9.612;2023-04-26T03:01:15;98917.47;;;8.77;45.50
69796;BME280;57073;45.650;9.612;2023-04-26T03:06:17;98916.19;;;8.68;46.65
69796;BME280;57073;45.650;9.612;2023-04-26T03:11:17;98916.88;;;8.63;46.54
69796;BME280;57073;45.650;9.612;2023-04-26T03:16:18;98920.06;;;8.60;47.03
69796;BME280;57073;45.650;9.612;2023-04-26T03:21:20;98922.97;;;8.59;46.31
69796;BME280;57073;45.650;9.612;2023-04-26T03:26:20;98919.94;;;8.55;46.03
69796;BME280;57073;45.650;9.612;2023-04-26T03:31:21;98920.16;;;8.54;46.45
69796;BME280;57073;45.650;9.612;2023-04-26T03:36:22;98927.28;;;8.48;47.88
69796;BME280;57073;45.650;9.612;2023-04-26T03:41:23;98927.28;;;8.48;45.66
69796;BME280;57073;45.650;9.612;2023-04-26T03:46:23;98928.56;;;8.45;44.48
69796;BME280;57073;45.650;9.612;2023-04-26T03:51:24;98929.41;;;8.46;43.43
69796;BME280;57073;45.650;9.612;2023-04-26T03:56:26;98926.72;;;8.46;42.82
69796;BME280;57073;45.650;9.612;2023-04-26T04:01:27;98930.44;;;8.45;42.57
69796;BME280;57073;45.650;9.612;2023-04-26T04:06:27;98920.38;;;8.40;42.35
69796;BME280;57073;45.650;9.612;2023-04-26T04:11:28;98926.56;;;8.41;42.54
69796;BME280;57073;45.650;9.612;2023-04-26T04:16:28;98940.00;;;8.41;41.13
69796;BME280;57073;45.650;9.612;2023-04-26T04:21:29;98943.16;;;8.38;41.60
69796;BME280;57073;45.650;9.612;2023-04-26T04:26:29;98939.44;;;8.39;41.90
69796;BME280;57073;45.650;9.612;2023-04-26T04:31:30;98947.72;;;8.37;41.79
69796;BME280;57073;45.650;9.612;2023-04-26T04:36:30;98938.22;;;8.35;42.25
69796;BME280;57073;45.650;9.612;2023-04-26T04:41:31;98950.75;;;8.41;42.36
69796;BME280;57073;45.650;9.612;2023-04-26T04:46:32;98964.78;;;8.55;41.90
69796;BME280;57073;45.650;9.612;2023-04-26T04:51:32;98961.63;;;8.58;42.55
69796;BME280;57073;45.650;9.612;2023-04-26T04:56:32;98956.38;;;8.75;42.25
69796;BME280;57073;45.650;9.612;2023-04-26T05:01:33;98965.88;;;8.89;42.21
69796;BME280;57073;45.650;9.612;2023-04-26T05:06:34;98968.94;;;9.04;42.04
69796;BME280;57073;45.650;9.612;2023-04-26T05:11:35;98974.56;;;9.15;42.52
69796;BME280;57073;45.650;9.612;2023-04-26T05:16:35;98985.41;;;9.20;42.76
69796;BME280;57073;45.650;9.612;2023-04-26T05:21:36;98987.03;;;9.33;42.53
69796;BME280;57073;45.650;9.612;2023-04-26T05:26:36;98990.06;;;9.48;43.14
69796;BME280;57073;45.650;9.612;2023-04-26T05:31:36;99000.72;;;9.55;43.29
69796;BME280;57073;45.650;9.612;2023-04-26T05:36:37;99017.28;;;9.75;43.49
69796;BME280;57073;45.650;9.612;2023-04-26T05:41:37;99015.91;;;10.01;42.88
69796;BME280;57073;45.650;9.612;2023-04-26T05:46:37;99012.75;;;10.33;41.76
69796;BME280;57073;45.650;9.612;2023-04-26T05:51:38;99023.03;;;11.16;40.81
69796;BME280;57073;45.650;9.612;2023-04-26T05:56:38;99024.94;;;11.76;38.82
69796;BME280;57073;45.650;9.612;2023-04-26T06:01:38;99032.88;;;12.32;38.57
69796;BME280;57073;45.650;9.612;2023-04-26T06:06:39;99040.66;;;12.78;36.83
69796;BME280;57073;45.650;9.612;2023-04-26T06:11:39;99036.75;;;12.69;34.67
69796;BME280;57073;45.650;9.612;2023-04-26T06:16:39;99050.75;;;13.25;35.70
69796;BME280;57073;45.650;9.612;2023-04-26T06:21:40;99055.09;;;13.74;35.17
69796;BME280;57073;45.650;9.612;2023-04-26T06:26:40;99060.19;;;14.13;34.68
69796;BME280;57073;45.650;9.612;2023-04-26T06:31:41;99058.81;;;14.16;32.52
69796;BME280;57073;45.650;9.612;2023-04-26T06:36:41;99056.09;;;14.11;31.95
69796;BME280;57073;45.650;9.612;2023-04-26T06:41:41;99057.53;;;14.39;30.60
69796;BME280;57073;45.650;9.612;2023-04-26T06:46:42;99062.19;;;14.59;31.27
69796;BME280;57073;45.650;9.612;2023-04-26T06:51:42;99067.69;;;15.10;30.49
69796;BME280;57073;45.650;9.612;2023-04-26T06:56:44;99063.81;;;15.63;30.32
69796;BME280;57073;45.650;9.612;2023-04-26T07:01:44;99056.78;;;15.41;28.74
69796;BME280;57073;45.650;9.612;2023-04-26T07:06:45;99071.13;;;15.67;28.31
69796;BME280;57073;45.650;9.612;2023-04-26T07:11:45;99067.00;;;15.85;29.61
69796;BME280;57073;45.650;9.612;2023-04-26T07:16:46;99074.94;;;16.42;28.48
69796;BME280;57073;45.650;9.612;2023-04-26T07:21:46;99072.44;;;15.85;26.15
69796;BME280;57073;45.650;9.612;2023-04-26T07:26:47;99075.28;;;16.80;28.05
69796;BME280;57073;45.650;9.612;2023-04-26T07:31:48;99082.38;;;17.10;28.97
69796;BME280;57073;45.650;9.612;2023-04-26T07:36:48;99083.50;;;17.38;29.65
69796;BME280;57073;45.650;9.612;2023-04-26T07:41:48;99073.94;;;17.41;28.66
69796;BME280;57073;45.650;9.612;2023-04-26T07:46:49;99071.88;;;16.98;29.63
69796;BME280;57073;45.650;9.612;2023-04-26T07:51:50;99070.16;;;17.66;30.80
69796;BME280;57073;45.650;9.612;2023-04-26T07:56:51;99078.22;;;18.00;30.06
69796;BME280;57073;45.650;9.612;2023-04-26T08:01:51;99074.09;;;18.27;30.37
69796;BME280;57073;45.650;9.612;2023-04-26T08:06:52;99075.44;;;18.68;30.86
69796;BME280;57073;45.650;9.612;2023-04-26T08:11:52;99068.44;;;18.61;28.20
69796;BME280;57073;45.650;9.612;2023-04-26T08:16:53;99072.44;;;18.07;28.58
69796;BME280;57073;45.650;9.612;2023-04-26T08:21:53;99074.38;;;18.25;28.69
69796;BME280;57073;45.650;9.612;2023-04-26T08:26:54;99077.66;;;18.85;28.01
69796;BME280;57073;45.650;9.612;2023-04-26T08:31:54;99088.28;;;18.48;25.96
69796;BME280;57073;45.650;9.612;2023-04-26T08:36:54;99098.13;;;19.20;27.85
69796;BME280;57073;45.650;9.612;2023-04-26T08:42:03;99096.47;;;19.38;28.50
69796;BME280;57073;45.650;9.612;2023-04-26T08:52:47;99106.13;;;19.49;27.02
69796;BME280;57073;45.650;9.612;2023-04-26T08:57:49;99107.75;;;19.50;27.38
69796;BME280;57073;45.650;9.612;2023-04-26T09:02:51;99099.25;;;19.66;28.45
69796;BME280;57073;45.650;9.612;2023-04-26T09:08:00;99094.84;;;18.47;28.11
69796;BME280;57073;45.650;9.612;2023-04-26T09:13:01;99092.72;;;19.15;27.70
69796;BME280;57073;45.650;9.612;2023-04-26T09:18:21;99098.94;;;18.69;27.17
69796;BME280;57073;45.650;9.612;2023-04-26T09:23:22;99094.72;;;18.33;26.76
69796;BME280;57073;45.650;9.612;2023-04-26T09:28:23;99088.84;;;19.02;28.63
69796;BME280;57073;45.650;9.612;2023-04-26T09:33:23;99085.59;;;19.00;26.18
69796;BME280;57073;45.650;9.612;2023-04-26T09:38:24;99087.63;;;18.94;25.88
69796;BME280;57073;45.650;9.612;2023-04-26T09:43:24;99090.41;;;18.89;26.26
69796;BME280;57073;45.650;9.612;2023-04-26T09:58:26;99071.69;;;18.63;26.60
69796;BME280;57073;45.650;9.612;2023-04-26T10:03:26;99074.53;;;18.34;26.74
69796;BME280;57073;45.650;9.612;2023-04-26T10:08:27;99071.59;;;18.88;27.30
69796;BME280;57073;45.650;9.612;2023-04-26T10:13:28;99066.63;;;18.90;26.09
69796;BME280;57073;45.650;9.612;2023-04-26T10:18:30;99069.13;;;18.29;26.68
69796;BME280;57073;45.650;9.612;2023-04-26T10:23:31;99048.53;;;18.61;28.50
69796;BME280;57073;45.650;9.612;2023-04-26T10:34:17;99048.78;;;18.78;28.06
69796;BME280;57073;45.650;9.612;2023-04-26T10:39:19;99038.09;;;17.82;25.86
69796;BME280;57073;45.650;9.612;2023-04-26T10:49:43;99030.25;;;17.75;26.93
69796;BME280;57073;45.650;9.612;2023-04-26T10:54:49;99026.44;;;17.76;25.81
69796;BME280;57073;45.650;9.612;2023-04-26T11:00:18;99018.75;;;17.54;26.65
69796;BME280;57073;45.650;9.612;2023-04-26T11:05:41;99018.47;;;17.26;26.62
69796;BME280;57073;45.650;9.612;2023-04-26T11:10:58;99016.88;;;17.25;28.75
69796;BME280;57073;45.650;9.612;2023-04-26T11:16:02;99021.09;;;17.66;30.56
69796;BME280;57073;45.650;9.612;2023-04-26T11:21:04;99010.16;;;17.90;29.80
69796;BME280;57073;45.650;9.612;2023-04-26T11:26:07;99008.34;;;17.61;30.21
69796;BME280;57073;45.650;9.612;2023-04-26T11:31:07;99005.41;;;17.53;30.62
69796;BME280;57073;45.650;9.612;2023-04-26T11:36:08;98996.22;;;17.92;28.85
69796;BME280;57073;45.650;9.612;2023-04-26T11:41:08;98997.72;;;18.03;30.53
69796;BME280;57073;45.650;9.612;2023-04-26T11:46:10;98995.94;;;17.93;29.87
69796;BME280;57073;45.650;9.612;2023-04-26T11:51:10;98998.25;;;18.05;29.83
69796;BME280;57073;45.650;9.612;2023-04-26T11:56:15;98989.91;;;18.15;30.01
69796;BME280;57073;45.650;9.612;2023-04-26T12:01:26;98982.09;;;18.09;30.39
69796;BME280;57073;45.650;9.612;2023-04-26T12:06:31;98975.00;;;17.89;29.29
69796;BME280;57073;45.650;9.612;2023-04-26T12:11:47;98980.69;;;17.92;30.41
69796;BME280;57073;45.650;9.612;2023-04-26T12:16:47;98968.88;;;17.97;30.55
69796;BME280;57073;45.650;9.612;2023-04-26T12:21:47;98974.22;;;18.07;29.87
69796;BME280;57073;45.650;9.612;2023-04-26T12:26:49;98974.28;;;18.02;28.04
69796;BME280;57073;45.650;9.612;2023-04-26T12:31:50;98970.81;;;18.15;29.09
69796;BME280;57073;45.650;9.612;2023-04-26T12:36:50;98973.19;;;18.03;27.70
69796;BME280;57073;45.650;9.612;2023-04-26T12:41:50;98962.91;;;17.95;27.88
69796;BME280;57073;45.650;9.612;2023-04-26T12:46:51;98972.97;;;17.99;28.00
69796;BME280;57073;45.650;9.612;2023-04-26T12:51:51;98957.81;;;17.88;28.64
69796;BME280;57073;45.650;9.612;2023-04-26T12:56:51;98960.47;;;17.93;28.31
69796;BME280;57073;45.650;9.612;2023-04-26T13:01:52;98953.75;;;17.85;27.75
69796;BME280;57073;45.650;9.612;2023-04-26T13:06:52;98952.22;;;17.98;28.34
69796;BME280;57073;45.650;9.612;2023-04-26T13:11:52;98955.25;;;17.97;27.89
69796;BME280;57073;45.650;9.612;2023-04-26T13:16:53;98960.19;;;17.95;27.15
69796;BME280;57073;45.650;9.612;2023-04-26T13:21:53;98952.31;;;18.12;27.50
69796;BME280;57073;45.650;9.612;2023-04-26T13:26:54;98958.72;;;18.02;27.33
69796;BME280;57073;45.650;9.612;2023-04-26T13:31:54;98950.81;;;18.20;26.70
69796;BME280;57073;45.650;9.612;2023-04-26T13:36:56;98945.91;;;18.03;26.81
69796;BME280;57073;45.650;9.612;2023-04-26T13:41:58;98951.78;;;18.10;27.02
69796;BME280;57073;45.650;9.612;2023-04-26T13:46:58;98936.38;;;18.19;26.28
69796;BME280;57073;45.650;9.612;2023-04-26T13:51:59;98939.75;;;18.11;25.95
69796;BME280;57073;45.650;9.612;2023-04-26T13:57:00;98931.34;;;18.27;27.13
69796;BME280;57073;45.650;9.612;2023-04-26T14:02:00;98932.97;;;18.28;26.39
69796;BME280;57073;45.650;9.612;2023-04-26T14:07:01;98924.19;;;18.12;26.26
69796;BME280;57073;45.650;9.612;2023-04-26T14:12:01;98925.00;;;18.31;26.65
69796;BME280;57073;45.650;9.612;2023-04-26T14:17:02;98923.19;;;18.27;25.74
69796;BME280;57073;45.650;9.612;2023-04-26T14:22:02;98912.78;;;18.10;25.20
69796;BME280;57073;45.650;9.612;2023-04-26T14:27:03;98907.38;;;18.04;25.20
69796;BME280;57073;45.650;9.612;2023-04-26T14:32:03;98913.13;;;18.22;25.96
69796;BME280;57073;45.650;9.612;2023-04-26T14:37:05;98902.38;;;18.44;25.80
69796;BME280;57073;45.650;9.612;2023-04-26T14:42:05;98895.47;;;18.52;26.22
69796;BME280;57073;45.650;9.612;2023-04-26T14:47:06;98888.22;;;18.61;26.12
69796;BME280;57073;45.650;9.612;2023-04-26T14:52:06;98890.25;;;18.70;26.01
69796;BME280;57073;45.650;9.612;2023-04-26T14:57:07;98881.97;;;18.61;25.72
69796;BME280;57073;45.650;9.612;2023-04-26T15:02:07;98874.06;;;18.73;25.90
69796;BME280;57073;45.650;9.612;2023-04-26T15:07:08;98885.09;;;18.68;26.34
69796;BME280;57073;45.650;9.612;2023-04-26T15:12:08;98881.13;;;18.60;25.06
69796;BME280;57073;45.650;9.612;2023-04-26T15:17:09;98865.66;;;18.70;26.50
69796;BME280;57073;45.650;9.612;2023-04-26T15:22:09;98886.56;;;18.47;25.62
69796;BME280;57073;45.650;9.612;2023-04-26T15:27:10;98886.00;;;18.44;25.57
69796;BME280;57073;45.650;9.612;2023-04-26T15:32:11;98877.59;;;18.41;25.67
69796;BME280;57073;45.650;9.612;2023-04-26T15:37:12;98875.50;;;18.38;25.13
69796;BME280;57073;45.650;9.612;2023-04-26T15:42:12;98878.22;;;18.38;25.66
69796;BME280;57073;45.650;9.612;2023-04-26T15:47:13;98880.88;;;18.43;26.35
69796;BME280;57073;45.650;9.612;2023-04-26T15:52:13;98882.03;;;18.56;27.39
69796;BME280;57073;45.650;9.612;2023-04-26T15:57:16;98879.75;;;18.63;27.83
69796;BME280;57073;45.650;9.612;2023-04-26T16:02:16;98874.06;;;18.59;26.41
69796;BME280;57073;45.650;9.612;2023-04-26T16:07:17;98875.88;;;18.50;26.38
69796;BME280;57073;45.650;9.612;2023-04-26T16:12:17;98879.47;;;18.46;25.46
69796;BME280;57073;45.650;9.612;2023-04-26T16:17:18;98879.63;;;18.35;25.66
69796;BME280;57073;45.650;9.612;2023-04-26T16:22:18;98871.63;;;18.39;25.22
69796;BME280;57073;45.650;9.612;2023-04-26T16:27:18;98872.16;;;18.41;25.64
69796;BME280;57073;45.650;9.612;2023-04-26T16:32:21;98873.44;;;18.49;25.20
69796;BME280;57073;45.650;9.612;2023-04-26T16:37:22;98879.53;;;18.40;24.47
69796;BME280;57073;45.650;9.612;2023-04-26T16:42:22;98892.09;;;18.41;23.80
69796;BME280;57073;45.650;9.612;2023-04-26T16:47:32;98878.22;;;18.38;23.85
69796;BME280;57073;45.650;9.612;2023-04-26T16:52:33;98876.38;;;18.33;23.65
69796;BME280;57073;45.650;9.612;2023-04-26T16:57:33;98881.19;;;18.22;23.18
69796;BME280;57073;45.650;9.612;2023-04-26T17:02:33;98876.63;;;18.18;21.40
69796;BME280;57073;45.650;9.612;2023-04-26T17:07:35;98873.50;;;18.24;22.56
69796;BME280;57073;45.650;9.612;2023-04-26T17:12:36;98870.03;;;18.05;23.61
69796;BME280;57073;45.650;9.612;2023-04-26T17:17:36;98877.34;;;17.91;23.56
69796;BME280;57073;45.650;9.612;2023-04-26T17:22:36;98878.00;;;17.63;23.21
69796;BME280;57073;45.650;9.612;2023-04-26T17:27:37;98881.91;;;17.76;23.79
69796;BME280;57073;45.650;9.612;2023-04-26T17:32:37;98880.44;;;17.65;23.44
69796;BME280;57073;45.650;9.612;2023-04-26T17:37:38;98874.44;;;17.63;23.73
69796;BME280;57073;45.650;9.612;2023-04-26T17:42:38;98896.53;;;17.37;22.46
69796;BME280;57073;45.650;9.612;2023-04-26T17:47:38;98884.56;;;17.38;23.37
69796;BME280;57073;45.650;9.612;2023-04-26T17:52:39;98889.22;;;17.57;23.23
69796;BME280;57073;45.650;9.612;2023-04-26T17:57:39;98896.81;;;17.60;23.29
69796;BME280;57073;45.650;9.612;2023-04-26T18:02:40;98897.91;;;17.59;23.36
69796;BME280;57073;45.650;9.612;2023-04-26T18:07:42;98898.56;;;17.51;23.79
69796;BME280;57073;45.650;9.612;2023-04-26T18:12:42;98906.16;;;17.54;23.69
69796;BME280;57073;45.650;9.612;2023-04-26T18:17:42;98909.38;;;17.37;25.61
69796;BME280;57073;45.650;9.612;2023-04-26T18:22:43;98912.38;;;17.35;25.58
69796;BME280;57073;45.650;9.612;2023-04-26T18:27:43;98924.97;;;17.31;25.71
69796;BME280;57073;45.650;9.612;2023-04-26T18:32:45;98921.88;;;17.14;26.63
69796;BME280;57073;45.650;9.612;2023-04-26T18:37:45;98927.94;;;17.10;26.62
69796;BME280;57073;45.650;9.612;2023-04-26T18:42:46;98929.06;;;17.04;27.06
69796;BME280;57073;45.650;9.612;2023-04-26T18:47:46;98935.50;;;16.89;27.81
69796;BME280;57073;45.650;9.612;2023-04-26T18:52:46;98940.66;;;16.91;27.74
69796;BME280;57073;45.650;9.612;2023-04-26T18:57:47;98950.28;;;16.83;27.52
69796;BME280;57073;45.650;9.612;2023-04-26T19:02:47;98961.47;;;16.77;28.99
69796;BME280;57073;45.650;9.612;2023-04-26T19:07:50;98974.09;;;16.62;30.73
69796;BME280;57073;45.650;9.612;2023-04-26T19:12:52;98979.59;;;16.52;31.90
69796;BME280;57073;45.650;9.612;2023-04-26T19:17:52;98990.09;;;16.34;32.12
69796;BME280;57073;45.650;9.612;2023-04-26T19:22:53;98984.69;;;16.29;32.29
69796;BME280;57073;45.650;9.612;2023-04-26T19:27:53;98987.75;;;16.12;33.09
69796;BME280;57073;45.650;9.612;2023-04-26T19:32:54;99003.88;;;16.04;32.97
69796;BME280;57073;45.650;9.612;2023-04-26T19:37:54;98993.28;;;15.97;32.34
69796;BME280;57073;45.650;9.612;2023-04-26T19:42:54;99000.13;;;15.94;32.85
69796;BME280;57073;45.650;9.612;2023-04-26T19:47:55;99011.03;;;15.84;32.95
69796;BME280;57073;45.650;9.612;2023-04-26T19:52:55;99011.84;;;15.74;33.56
69796;BME280;57073;45.650;9.612;2023-04-26T19:57:56;99027.72;;;15.36;34.47
69796;BME280;57073;45.650;9.612;2023-04-26T20:02:58;99042.66;;;15.24;35.48
69796;BME280;57073;45.650;9.612;2023-04-26T20:07:58;99049.22;;;15.23;35.01
69796;BME280;57073;45.650;9.612;2023-04-26T20:12:59;99044.06;;;15.00;36.25
69796;BME280;57073;45.650;9.612;2023-04-26T20:17:59;99053.00;;;14.91;35.64
69796;BME280;57073;45.650;9.612;2023-04-26T20:23:01;99055.72;;;14.86;35.90
69796;BME280;57073;45.650;9.612;2023-04-26T20:28:02;99055.69;;;14.75;35.76
69796;BME280;57073;45.650;9.612;2023-04-26T20:33:03;99082.84;;;14.80;35.27
69796;BME280;57073;45.650;9.612;2023-04-26T20:38:03;99089.31;;;14.69;35.73
69796;BME280;57073;45.650;9.612;2023-04-26T20:43:03;99084.97;;;14.58;34.28
69796;BME280;57073;45.650;9.612;2023-04-26T20:48:04;99095.78;;;14.37;34.55
69796;BME280;57073;45.650;9.612;2023-04-26T20:53:04;99092.81;;;14.39;35.29
69796;BME280;57073;45.650;9.612;2023-04-26T20:58:05;99092.53;;;14.35;36.07
69796;BME280;57073;45.650;9.612;2023-04-26T21:03:06;99094.41;;;14.35;35.91
69796;BME280;57073;45.650;9.612;2023-04-26T21:08:06;99101.47;;;14.36;35.63
69796;BME280;57073;45.650;9.612;2023-04-26T21:13:06;99100.63;;;14.30;35.32
69796;BME280;57073;45.650;9.612;2023-04-26T21:18:07;99102.72;;;14.13;35.09
69796;BME280;57073;45.650;9.612;2023-04-26T21:23:07;99104.28;;;13.98;35.47
69796;BME280;57073;45.650;9.612;2023-04-26T21:28:07;99106.44;;;13.91;36.20
69796;BME280;57073;45.650;9.612;2023-04-26T21:33:08;99107.56;;;14.00;35.64
69796;BME280;57073;45.650;9.612;2023-04-26T21:38:08;99118.09;;;13.97;35.76
69796;BME280;57073;45.650;9.612;2023-04-26T21:43:08;99114.84;;;13.95;35.99
69796;BME280;57073;45.650;9.612;2023-04-26T21:48:09;99119.97;;;13.91;36.34
69796;BME280;57073;45.650;9.612;2023-04-26T21:53:09;99117.91;;;13.61;38.04
69796;BME280;57073;45.650;9.612;2023-04-26T21:58:10;99121.38;;;13.56;37.06
69796;BME280;57073;45.650;9.612;2023-04-26T22:03:10;99127.72;;;13.35;38.19
69796;BME280;57073;45.650;9.612;2023-04-26T22:08:10;99124.41;;;13.27;38.91
69796;BME280;57073;45.650;9.612;2023-04-26T22:13:11;99120.84;;;13.22;39.76
69796;BME280;57073;45.650;9.612;2023-04-26T22:18:11;99131.41;;;13.23;39.06
69796;BME280;57073;45.650;9.612;2023-04-26T22:23:11;99114.03;;;13.14;38.57
69796;BME280;57073;45.650;9.612;2023-04-26T22:28:11;99133.72;;;13.09;39.29
69796;BME280;57073;45.650;9.612;2023-04-26T22:33:12;99139.97;;;13.10;39.10
69796;BME280;57073;45.650;9.612;2023-04-26T22:38:12;99136.19;;;13.11;38.47
69796;BME280;57073;45.650;9.612;2023-04-26T22:43:13;99143.75;;;13.09;38.54
69796;BME280;57073;45.650;9.612;2023-04-26T22:48:16;99149.16;;;13.09;38.75
69796;BME280;57073;45.650;9.612;2023-04-26T22:53:16;99155.13;;;13.11;38.41
69796;BME280;57073;45.650;9.612;2023-04-26T22:58:17;99163.19;;;13.01;39.09
69796;BME280;57073;45.650;9.612;2023-04-26T23:03:17;99156.22;;;12.83;39.57
69796;BME280;57073;45.650;9.612;2023-04-26T23:08:18;99165.34;;;12.77;40.19
69796;BME280;57073;45.650;9.612;2023-04-26T23:13:18;99169.03;;;12.93;39.74
69796;BME280;57073;45.650;9.612;2023-04-26T23:18:19;99168.78;;;12.94;39.21
69796;BME280;57073;45.650;9.612;2023-04-26T23:23:19;99178.75;;;12.88;39.25
69796;BME280;57073;45.650;9.612;2023-04-26T23:28:20;99172.16;;;12.79;40.70
69796;BME280;57073;45.650;9.612;2023-04-26T23:33:20;99173.53;;;12.60;41.09
69796;BME280;57073;45.650;9.612;2023-04-26T23:38:21;99175.78;;;12.68;40.54
69796;BME280;57073;45.650;9.612;2023-04-26T23:43:22;99169.56;;;12.67;40.58
69796;BME280;57073;45.650;9.612;2023-04-26T23:48:22;99171.38;;;12.62;40.38
69796;BME280;57073;45.650;9.612;2023-04-26T23:53:22;99172.97;;;12.58;39.90
69796;BME280;57073;45.650;9.612;2023-04-26T23:58:23;99177.22;;;12.53;40.20
